sensor_id;sensor_type;location;lat;lon;timestamp;pressure;altitude;pressure_sealevel;temperature;humidity
77587;BME280;66744;49.716;17.158;2023-12-29T00:01:21;99242.78;;;5.37;80.69
77587;BME280;66744;49.716;17.158;2023-12-29T00:04:22;99244.72;;;5.33;80.81
77587;BME280;66744;49.716;17.158;2023-12-29T00:07:24;99251.75;;;5.31;79.71
77587;BME280;66744;49.716;17.158;2023-12-29T00:10:27;99254.09;;;5.25;80.29
77587;BME280;66744;49.716;17.158;2023-12-29T00:13:29;99232.72;;;5.13;79.93
77587;BME280;66744;49.716;17.158;2023-12-29T00:16:31;99239.75;;;5.07;81.76
77587;BME280;66744;49.716;17.158;2023-12-29T00:19:35;99238.22;;;4.95;82.18
77587;BME280;66744;49.716;17.158;2023-12-29T00:22:39;99238.97;;;4.99;82.47
77587;BME280;66744;49.716;17.158;2023-12-29T00:25:41;99239.38;;;5.01;82.84
77587;BME280;66744;49.716;17.158;2023-12-29T00:28:44;99228.06;;;5.07;82.13
77587;BME280;66744;49.716;17.158;2023-12-29T00:31:45;99224.56;;;5.02;81.15
77587;BME280;66744;49.716;17.158;2023-12-29T00:34:48;99224.56;;;5.06;81.34
77587;BME280;66744;49.716;17.158;2023-12-29T00:37:52;99226.13;;;5.03;81.14
77587;BME280;66744;49.716;17.158;2023-12-29T00:40:59;99214.88;;;4.94;81.75
77587;BME280;66744;49.716;17.158;2023-12-29T00:44:01;99223.03;;;4.91;82.84
77587;BME280;66744;49.716;17.158;2023-12-29T00:47:02;99234.72;;;4.84;83.80
77587;BME280;66744;49.716;17.158;2023-12-29T00:50:05;99220.69;;;4.93;82.51
77587;BME280;66744;49.716;17.158;2023-12-29T00:53:07;99228.50;;;4.87;82.25
77587;BME280;66744;49.716;17.158;2023-12-29T00:56:13;99233.94;;;4.94;81.59
77587;BME280;66744;49.716;17.158;2023-12-29T00:59:14;99231.59;;;4.93;82.19
77587;BME280;66744;49.716;17.158;2023-12-29T01:02:16;99232.00;;;4.95;81.66
77587;BME280;66744;49.716;17.158;2023-12-29T01:05:18;99238.22;;;4.95;80.62
77587;BME280;66744;49.716;17.158;2023-12-29T01:08:20;99244.81;;;4.94;81.19
77587;BME280;66744;49.716;17.158;2023-12-29T01:11:23;99246.75;;;4.90;78.87
77587;BME280;66744;49.716;17.158;2023-12-29T01:14:25;99231.25;;;4.80;80.11
77587;BME280;66744;49.716;17.158;2023-12-29T01:17:26;99225.78;;;4.70;78.87
77587;BME280;66744;49.716;17.158;2023-12-29T01:20:32;99213.38;;;4.58;78.71
77587;BME280;66744;49.716;17.158;2023-12-29T01:23:33;99208.34;;;4.49;79.44
77587;BME280;66744;49.716;17.158;2023-12-29T01:26:38;99199.78;;;4.51;80.08
77587;BME280;66744;49.716;17.158;2023-12-29T01:29:40;99193.97;;;4.56;80.58
77587;BME280;66744;49.716;17.158;2023-12-29T01:32:45;99199.00;;;4.58;79.88
77587;BME280;66744;49.716;17.158;2023-12-29T01:35:46;99209.50;;;4.59;79.51
77587;BME280;66744;49.716;17.158;2023-12-29T01:38:51;99202.13;;;4.60;79.91
77587;BME280;66744;49.716;17.158;2023-12-29T01:41:56;99206.41;;;4.54;78.48
77587;BME280;66744;49.716;17.158;2023-12-29T01:44:57;99200.97;;;4.50;78.34
77587;BME280;66744;49.716;17.158;2023-12-29T01:47:59;99199.00;;;4.43;78.50
77587;BME280;66744;49.716;17.158;2023-12-29T01:51:01;99185.03;;;4.45;78.80
77587;BME280;66744;49.716;17.158;2023-12-29T01:54:03;99176.88;;;4.41;78.48
77587;BME280;66744;49.716;17.158;2023-12-29T01:57:08;99177.66;;;4.42;78.95
77587;BME280;66744;49.716;17.158;2023-12-29T02:04:38;99168.72;;;4.34;79.02
77587;BME280;66744;49.716;17.158;2023-12-29T02:07:42;99166.00;;;4.34;79.40
77587;BME280;66744;49.716;17.158;2023-12-29T02:10:47;99174.56;;;4.36;79.74
77587;BME280;66744;49.716;17.158;2023-12-29T02:13:49;99176.09;;;4.37;79.23
77587;BME280;66744;49.716;17.158;2023-12-29T02:20:09;99176.88;;;4.34;78.79
77587;BME280;66744;49.716;17.158;2023-12-29T02:23:12;99180.00;;;4.36;79.04
77587;BME280;66744;49.716;17.158;2023-12-29T02:26:16;99180.38;;;4.31;79.45
77587;BME280;66744;49.716;17.158;2023-12-29T02:29:20;99169.88;;;4.37;79.02
77587;BME280;66744;49.716;17.158;2023-12-29T02:32:27;99176.09;;;4.37;78.81
77587;BME280;66744;49.716;17.158;2023-12-29T02:35:35;99167.94;;;4.30;80.28
77587;BME280;66744;49.716;17.158;2023-12-29T02:38:40;99166.41;;;4.36;79.11
77587;BME280;66744;49.716;17.158;2023-12-29T02:41:41;99169.88;;;4.40;80.12
77587;BME280;66744;49.716;17.158;2023-12-29T02:44:43;99162.09;;;4.42;78.88
77587;BME280;66744;49.716;17.158;2023-12-29T02:47:44;99153.94;;;4.46;79.64
77587;BME280;66744;49.716;17.158;2023-12-29T02:50:45;99144.22;;;4.52;78.81
77587;BME280;66744;49.716;17.158;2023-12-29T02:53:50;99138.38;;;4.54;79.38
77587;BME280;66744;49.716;17.158;2023-12-29T02:56:51;99142.25;;;4.60;80.85
77587;BME280;66744;49.716;17.158;2023-12-29T02:59:53;99139.13;;;4.61;80.40
77587;BME280;66744;49.716;17.158;2023-12-29T03:02:55;99149.66;;;4.59;79.97
77587;BME280;66744;49.716;17.158;2023-12-29T03:05:56;99143.06;;;4.60;79.97
77587;BME280;66744;49.716;17.158;2023-12-29T03:08:58;99133.69;;;4.65;80.67
77587;BME280;66744;49.716;17.158;2023-12-29T03:11:59;99143.00;;;4.67;80.77
77587;BME280;66744;49.716;17.158;2023-12-29T03:15:00;99137.56;;;4.71;80.55
77587;BME280;66744;49.716;17.158;2023-12-29T03:18:05;99143.78;;;4.75;79.72
77587;BME280;66744;49.716;17.158;2023-12-29T03:21:10;99141.81;;;4.75;79.49
77587;BME280;66744;49.716;17.158;2023-12-29T03:24:12;99138.31;;;4.78;79.08
77587;BME280;66744;49.716;17.158;2023-12-29T03:27:14;99139.09;;;4.82;80.32
77587;BME280;66744;49.716;17.158;2023-12-29T03:30:19;99136.34;;;4.86;80.05
77587;BME280;66744;49.716;17.158;2023-12-29T03:33:21;99131.69;;;4.83;79.87
77587;BME280;66744;49.716;17.158;2023-12-29T03:36:24;99131.69;;;4.83;80.43
77587;BME280;66744;49.716;17.158;2023-12-29T03:39:25;99129.78;;;4.80;79.50
77587;BME280;66744;49.716;17.158;2023-12-29T03:42:27;99124.72;;;4.78;80.42
77587;BME280;66744;49.716;17.158;2023-12-29T03:45:32;99131.28;;;4.84;81.12
77587;BME280;66744;49.716;17.158;2023-12-29T03:48:34;99135.22;;;4.83;80.24
77587;BME280;66744;49.716;17.158;2023-12-29T03:51:37;99133.28;;;4.80;80.55
77587;BME280;66744;49.716;17.158;2023-12-29T03:54:38;99132.50;;;4.80;81.30
77587;BME280;66744;49.716;17.158;2023-12-29T03:57:40;99108.41;;;4.75;80.36
77587;BME280;66744;49.716;17.158;2023-12-29T04:00:41;99104.97;;;4.57;81.65
77587;BME280;66744;49.716;17.158;2023-12-29T04:03:47;99115.03;;;4.70;82.43
77587;BME280;66744;49.716;17.158;2023-12-29T04:06:50;99127.03;;;4.80;81.83
77587;BME280;66744;49.716;17.158;2023-12-29T04:09:54;99126.25;;;4.86;81.20
77587;BME280;66744;49.716;17.158;2023-12-29T04:12:56;99114.97;;;4.88;80.48
77587;BME280;66744;49.716;17.158;2023-12-29T04:15:57;99110.28;;;4.88;81.57
77587;BME280;66744;49.716;17.158;2023-12-29T04:18:59;99112.22;;;4.91;81.00
77587;BME280;66744;49.716;17.158;2023-12-29T04:22:03;99121.56;;;4.94;82.04
77587;BME280;66744;49.716;17.158;2023-12-29T04:25:07;99122.31;;;4.94;81.67
77587;BME280;66744;49.716;17.158;2023-12-29T04:28:13;99123.47;;;5.00;80.83
77587;BME280;66744;49.716;17.158;2023-12-29T04:31:15;99134.38;;;5.00;82.16
77587;BME280;66744;49.716;17.158;2023-12-29T04:34:19;99139.81;;;5.04;81.76
77587;BME280;66744;49.716;17.158;2023-12-29T04:37:23;99148.34;;;5.02;82.15
77587;BME280;66744;49.716;17.158;2023-12-29T04:40:24;99148.75;;;5.01;82.12
77587;BME280;66744;49.716;17.158;2023-12-29T04:43:26;99132.78;;;5.03;81.04
77587;BME280;66744;49.716;17.158;2023-12-29T04:46:29;99134.78;;;4.95;82.39
77587;BME280;66744;49.716;17.158;2023-12-29T04:49:30;99130.13;;;4.89;81.70
77587;BME280;66744;49.716;17.158;2023-12-29T04:52:32;99134.00;;;4.88;83.16
77587;BME280;66744;49.716;17.158;2023-12-29T04:55:35;99128.56;;;4.88;81.83
77587;BME280;66744;49.716;17.158;2023-12-29T04:58:37;99143.75;;;4.89;82.04
77587;BME280;66744;49.716;17.158;2023-12-29T05:01:38;99138.66;;;4.98;83.07
77587;BME280;66744;49.716;17.158;2023-12-29T05:04:40;99131.22;;;5.02;81.81
77587;BME280;66744;49.716;17.158;2023-12-29T05:07:42;99102.13;;;4.92;82.54
77587;BME280;66744;49.716;17.158;2023-12-29T05:10:46;99081.13;;;4.89;81.58
77587;BME280;66744;49.716;17.158;2023-12-29T05:13:48;99075.34;;;4.76;81.85
77587;BME280;66744;49.716;17.158;2023-12-29T05:16:49;99075.38;;;4.69;82.83
77587;BME280;66744;49.716;17.158;2023-12-29T05:19:50;99078.88;;;4.66;82.15
77587;BME280;66744;49.716;17.158;2023-12-29T05:22:54;99083.53;;;4.73;82.34
77587;BME280;66744;49.716;17.158;2023-12-29T05:25:57;99070.69;;;4.70;81.36
77587;BME280;66744;49.716;17.158;2023-12-29T05:28:59;99075.41;;;4.66;81.79
77587;BME280;66744;49.716;17.158;2023-12-29T05:32:04;99075.00;;;4.67;82.45
77587;BME280;66744;49.716;17.158;2023-12-29T05:35:08;99080.78;;;4.76;82.01
77587;BME280;66744;49.716;17.158;2023-12-29T05:38:13;99077.28;;;4.79;82.14
77587;BME280;66744;49.716;17.158;2023-12-29T05:41:14;99083.88;;;4.82;81.57
77587;BME280;66744;49.716;17.158;2023-12-29T05:44:17;99095.16;;;4.84;80.82
77587;BME280;66744;49.716;17.158;2023-12-29T05:47:18;99093.97;;;4.85;80.99
77587;BME280;66744;49.716;17.158;2023-12-29T05:50:20;99095.91;;;4.88;80.15
77587;BME280;66744;49.716;17.158;2023-12-29T05:53:21;99092.41;;;4.91;80.21
77587;BME280;66744;49.716;17.158;2023-12-29T05:56:22;99087.38;;;4.89;80.06
77587;BME280;66744;49.716;17.158;2023-12-29T05:59:24;99090.09;;;4.89;80.36
77587;BME280;66744;49.716;17.158;2023-12-29T06:02:27;99087.78;;;4.81;81.32
77587;BME280;66744;49.716;17.158;2023-12-29T06:05:32;99091.66;;;4.80;80.62
77587;BME280;66744;49.716;17.158;2023-12-29T06:08:35;99085.81;;;4.85;81.32
77587;BME280;66744;49.716;17.158;2023-12-29T06:11:36;99085.03;;;4.88;80.93
77587;BME280;66744;49.716;17.158;2023-12-29T06:14:38;99078.41;;;4.89;80.72
77587;BME280;66744;49.716;17.158;2023-12-29T06:17:42;99091.59;;;4.94;82.13
77587;BME280;66744;49.716;17.158;2023-12-29T06:20:44;99098.97;;;4.97;80.69
77587;BME280;66744;49.716;17.158;2023-12-29T06:23:45;99100.53;;;4.98;80.85
77587;BME280;66744;49.716;17.158;2023-12-29T06:26:47;99102.13;;;4.95;81.21
77587;BME280;66744;49.716;17.158;2023-12-29T06:29:51;99114.91;;;5.02;81.72
77587;BME280;66744;49.716;17.158;2023-12-29T06:32:53;99109.88;;;4.97;79.88
77587;BME280;66744;49.716;17.158;2023-12-29T06:35:55;99109.88;;;4.93;80.62
77587;BME280;66744;49.716;17.158;2023-12-29T06:38:56;99111.88;;;4.86;81.53
77587;BME280;66744;49.716;17.158;2023-12-29T06:42:01;99106.81;;;4.84;80.92
77587;BME280;66744;49.716;17.158;2023-12-29T06:45:05;99112.28;;;4.77;82.24
77587;BME280;66744;49.716;17.158;2023-12-29T06:48:12;99107.22;;;4.72;82.70
77587;BME280;66744;49.716;17.158;2023-12-29T06:51:18;99111.88;;;4.79;82.06
77587;BME280;66744;49.716;17.158;2023-12-29T06:54:20;99105.63;;;4.85;81.70
77587;BME280;66744;49.716;17.158;2023-12-29T06:57:22;99106.06;;;4.84;81.65
77587;BME280;66744;49.716;17.158;2023-12-29T07:00:26;99112.25;;;4.88;80.51
77587;BME280;66744;49.716;17.158;2023-12-29T07:03:28;99113.03;;;4.88;82.36
77587;BME280;66744;49.716;17.158;2023-12-29T07:06:30;99106.41;;;4.89;81.43
77587;BME280;66744;49.716;17.158;2023-12-29T07:09:31;99106.78;;;4.95;80.57
77587;BME280;66744;49.716;17.158;2023-12-29T07:12:36;99100.53;;;5.01;80.73
77587;BME280;66744;49.716;17.158;2023-12-29T07:15:42;99106.72;;;5.05;81.26
77587;BME280;66744;49.716;17.158;2023-12-29T07:18:46;99107.47;;;5.13;81.29
77587;BME280;66744;49.716;17.158;2023-12-29T07:21:48;99101.25;;;5.13;79.66
77587;BME280;66744;49.716;17.158;2023-12-29T07:24:49;99109.00;;;5.14;79.61
77587;BME280;66744;49.716;17.158;2023-12-29T07:27:51;99109.38;;;5.20;81.24
77587;BME280;66744;49.716;17.158;2023-12-29T07:30:57;99103.91;;;5.23;80.79
77587;BME280;66744;49.716;17.158;2023-12-29T07:34:03;99097.75;;;5.12;81.01
77587;BME280;66744;49.716;17.158;2023-12-29T07:37:07;99104.34;;;5.18;80.41
77587;BME280;66744;49.716;17.158;2023-12-29T07:40:12;99112.13;;;5.16;80.26
77587;BME280;66744;49.716;17.158;2023-12-29T07:43:15;99121.81;;;5.24;80.51
77587;BME280;66744;49.716;17.158;2023-12-29T07:46:28;99125.31;;;5.25;80.44
77587;BME280;66744;49.716;17.158;2023-12-29T07:49:30;99119.09;;;5.24;81.05
77587;BME280;66744;49.716;17.158;2023-12-29T07:52:31;99106.25;;;5.28;81.03
77587;BME280;66744;49.716;17.158;2023-12-29T07:55:37;99118.28;;;5.27;80.81
77587;BME280;66744;49.716;17.158;2023-12-29T07:58:42;99123.31;;;5.32;80.41
77587;BME280;66744;49.716;17.158;2023-12-29T08:01:45;99099.94;;;5.38;79.87
77587;BME280;66744;49.716;17.158;2023-12-29T08:04:47;99104.25;;;5.29;80.55
77587;BME280;66744;49.716;17.158;2023-12-29T08:07:49;99104.25;;;5.29;80.60
77587;BME280;66744;49.716;17.158;2023-12-29T08:10:51;99106.16;;;5.42;81.06
77587;BME280;66744;49.716;17.158;2023-12-29T08:13:52;99109.56;;;5.53;79.81
77587;BME280;66744;49.716;17.158;2023-12-29T08:16:54;99118.53;;;5.54;80.58
77587;BME280;66744;49.716;17.158;2023-12-29T08:19:55;99115.78;;;5.57;78.85
77587;BME280;66744;49.716;17.158;2023-12-29T08:22:57;99115.78;;;5.57;79.97
77587;BME280;66744;49.716;17.158;2023-12-29T08:25:58;99113.44;;;5.56;79.64
77587;BME280;66744;49.716;17.158;2023-12-29T08:29:00;99113.06;;;5.54;80.69
77587;BME280;66744;49.716;17.158;2023-12-29T08:32:01;99109.53;;;5.60;81.45
77587;BME280;66744;49.716;17.158;2023-12-29T08:35:03;99110.69;;;5.59;81.14
77587;BME280;66744;49.716;17.158;2023-12-29T08:38:06;99121.97;;;5.61;80.97
77587;BME280;66744;49.716;17.158;2023-12-29T08:41:13;99117.63;;;5.71;81.68
77587;BME280;66744;49.716;17.158;2023-12-29T08:44:14;99125.31;;;5.90;80.95
77587;BME280;66744;49.716;17.158;2023-12-29T08:47:15;99128.75;;;5.98;79.87
77587;BME280;66744;49.716;17.158;2023-12-29T08:50:17;99131.03;;;6.03;80.14
77587;BME280;66744;49.716;17.158;2023-12-29T08:53:22;99128.25;;;6.13;80.57
77587;BME280;66744;49.716;17.158;2023-12-29T08:56:23;99124.72;;;6.17;81.00
77587;BME280;66744;49.716;17.158;2023-12-29T08:59:25;99127.44;;;6.17;79.66
77587;BME280;66744;49.716;17.158;2023-12-29T09:02:30;99138.69;;;6.22;80.00
77587;BME280;66744;49.716;17.158;2023-12-29T09:05:32;99132.78;;;6.31;80.70
77587;BME280;66744;49.716;17.158;2023-12-29T09:08:34;99140.13;;;6.37;79.85
77587;BME280;66744;49.716;17.158;2023-12-29T09:11:41;99138.16;;;6.41;79.58
77587;BME280;66744;49.716;17.158;2023-12-29T09:14:44;99134.19;;;6.46;80.11
77587;BME280;66744;49.716;17.158;2023-12-29T09:17:47;99124.75;;;6.54;80.84
77587;BME280;66744;49.716;17.158;2023-12-29T09:20:48;99120.38;;;6.63;80.58
77587;BME280;66744;49.716;17.158;2023-12-29T09:23:49;99121.44;;;6.73;79.40
77587;BME280;66744;49.716;17.158;2023-12-29T09:26:57;99118.34;;;6.71;79.84
77587;BME280;66744;49.716;17.158;2023-12-29T09:29:58;99115.44;;;6.85;80.64
77587;BME280;66744;49.716;17.158;2023-12-29T09:33:00;99110.63;;;6.96;78.92
77587;BME280;66744;49.716;17.158;2023-12-29T09:36:04;99091.09;;;6.98;79.01
77587;BME280;66744;49.716;17.158;2023-12-29T09:39:09;99090.63;;;7.06;78.57
77587;BME280;66744;49.716;17.158;2023-12-29T09:42:20;99092.47;;;7.13;78.65
77587;BME280;66744;49.716;17.158;2023-12-29T09:45:27;99086.44;;;7.25;78.39
77587;BME280;66744;49.716;17.158;2023-12-29T09:48:31;99090.69;;;7.30;78.04
77587;BME280;66744;49.716;17.158;2023-12-29T09:51:38;99089.41;;;7.38;77.28
77587;BME280;66744;49.716;17.158;2023-12-29T09:54:40;99110.75;;;7.46;77.50
77587;BME280;66744;49.716;17.158;2023-12-29T09:57:42;99113.81;;;7.52;77.44
77587;BME280;66744;49.716;17.158;2023-12-29T10:00:46;99097.66;;;7.61;76.45
77587;BME280;66744;49.716;17.158;2023-12-29T10:03:51;99089.75;;;7.66;77.67
77587;BME280;66744;49.716;17.158;2023-12-29T10:06:56;99090.78;;;7.76;78.12
77587;BME280;66744;49.716;17.158;2023-12-29T10:10:14;99085.22;;;7.83;77.80
77587;BME280;66744;49.716;17.158;2023-12-29T10:13:18;99084.34;;;7.90;77.03
77587;BME280;66744;49.716;17.158;2023-12-29T10:16:38;99087.38;;;7.95;77.03
77587;BME280;66744;49.716;17.158;2023-12-29T10:19:50;99089.69;;;7.97;76.84
77587;BME280;66744;49.716;17.158;2023-12-29T10:23:13;99086.06;;;8.03;77.29
77587;BME280;66744;49.716;17.158;2023-12-29T10:26:19;99072.28;;;8.10;77.47
77587;BME280;66744;49.716;17.158;2023-12-29T10:29:27;99077.25;;;8.15;77.16
77587;BME280;66744;49.716;17.158;2023-12-29T10:32:32;99083.06;;;8.17;76.18
77587;BME280;66744;49.716;17.158;2023-12-29T10:35:34;99088.50;;;8.21;75.76
77587;BME280;66744;49.716;17.158;2023-12-29T10:38:40;99091.22;;;8.21;75.93
77587;BME280;66744;49.716;17.158;2023-12-29T10:41:44;99089.09;;;8.09;75.88
77587;BME280;66744;49.716;17.158;2023-12-29T10:45:04;99079.63;;;7.90;76.56
77587;BME280;66744;49.716;17.158;2023-12-29T10:48:08;99075.41;;;7.86;77.03
77587;BME280;66744;49.716;17.158;2023-12-29T10:51:14;99076.00;;;7.97;76.12
77587;BME280;66744;49.716;17.158;2023-12-29T10:54:24;99074.69;;;8.05;76.57
77587;BME280;66744;49.716;17.158;2023-12-29T10:57:25;99071.19;;;8.04;77.40
77587;BME280;66744;49.716;17.158;2023-12-29T11:00:33;99067.31;;;8.02;77.17
77587;BME280;66744;49.716;17.158;2023-12-29T11:03:34;99069.66;;;8.03;77.23
77587;BME280;66744;49.716;17.158;2023-12-29T11:06:44;99068.88;;;8.03;76.40
77587;BME280;66744;49.716;17.158;2023-12-29T11:09:49;99061.94;;;7.98;76.99
77587;BME280;66744;49.716;17.158;2023-12-29T11:12:51;99063.53;;;7.96;77.23
77587;BME280;66744;49.716;17.158;2023-12-29T11:15:57;99062.75;;;7.95;77.30
77587;BME280;66744;49.716;17.158;2023-12-29T11:19:00;99052.22;;;7.94;77.47
77587;BME280;66744;49.716;17.158;2023-12-29T11:22:08;99041.28;;;7.94;77.76
77587;BME280;66744;49.716;17.158;2023-12-29T11:25:11;99040.81;;;7.99;77.29
77587;BME280;66744;49.716;17.158;2023-12-29T11:28:13;99040.81;;;7.99;77.20
77587;BME280;66744;49.716;17.158;2023-12-29T11:31:17;99029.09;;;7.98;77.38
77587;BME280;66744;49.716;17.158;2023-12-29T11:34:25;99034.13;;;8.00;77.34
77587;BME280;66744;49.716;17.158;2023-12-29T11:40:52;99010.59;;;8.06;76.90
77587;BME280;66744;49.716;17.158;2023-12-29T11:44:02;99018.44;;;8.04;77.18
77587;BME280;66744;49.716;17.158;2023-12-29T11:47:04;99023.19;;;8.00;77.42
77587;BME280;66744;49.716;17.158;2023-12-29T11:50:05;99024.41;;;7.99;77.21
77587;BME280;66744;49.716;17.158;2023-12-29T11:53:32;99014.28;;;7.96;77.47
77587;BME280;66744;49.716;17.158;2023-12-29T11:56:40;99013.16;;;7.93;77.40
77587;BME280;66744;49.716;17.158;2023-12-29T11:59:47;99017.38;;;7.98;77.12
77587;BME280;66744;49.716;17.158;2023-12-29T12:02:50;99012.69;;;7.98;77.06
77587;BME280;66744;49.716;17.158;2023-12-29T12:05:54;99003.28;;;7.99;77.34
77587;BME280;66744;49.716;17.158;2023-12-29T12:09:17;98996.19;;;8.02;77.02
77587;BME280;66744;49.716;17.158;2023-12-29T12:12:42;99004.75;;;8.04;76.79
77587;BME280;66744;49.716;17.158;2023-12-29T12:15:43;99000.47;;;8.03;77.07
77587;BME280;66744;49.716;17.158;2023-12-29T12:18:44;98997.41;;;8.01;77.74
77587;BME280;66744;49.716;17.158;2023-12-29T12:21:48;98990.44;;;7.96;76.98
77587;BME280;66744;49.716;17.158;2023-12-29T12:25:00;98990.09;;;7.94;76.82
77587;BME280;66744;49.716;17.158;2023-12-29T12:28:07;98975.69;;;7.90;77.23
77587;BME280;66744;49.716;17.158;2023-12-29T12:31:14;98971.44;;;7.89;78.05
77587;BME280;66744;49.716;17.158;2023-12-29T12:34:16;98975.63;;;7.94;77.48
77587;BME280;66744;49.716;17.158;2023-12-29T12:37:29;98975.63;;;7.94;77.56
77587;BME280;66744;49.716;17.158;2023-12-29T12:40:33;98972.19;;;7.90;77.65
77587;BME280;66744;49.716;17.158;2023-12-29T12:43:41;98970.31;;;7.87;77.81
77587;BME280;66744;49.716;17.158;2023-12-29T12:46:51;98969.94;;;7.84;78.08
77587;BME280;66744;49.716;17.158;2023-12-29T12:49:59;98967.97;;;7.85;78.34
77587;BME280;66744;49.716;17.158;2023-12-29T12:53:06;98962.09;;;7.87;77.95
77587;BME280;66744;49.716;17.158;2023-12-29T12:56:12;98961.25;;;7.90;78.10
77587;BME280;66744;49.716;17.158;2023-12-29T12:59:17;98954.53;;;7.94;77.79
77587;BME280;66744;49.716;17.158;2023-12-29T13:02:18;98963.84;;;7.97;77.83
77587;BME280;66744;49.716;17.158;2023-12-29T13:05:21;98968.91;;;7.98;77.54
77587;BME280;66744;49.716;17.158;2023-12-29T13:08:26;98966.53;;;8.00;77.66
77587;BME280;66744;49.716;17.158;2023-12-29T13:11:29;98965.34;;;8.01;77.62
77587;BME280;66744;49.716;17.158;2023-12-29T13:14:34;98966.88;;;8.02;77.36
77587;BME280;66744;49.716;17.158;2023-12-29T13:17:38;98966.09;;;8.02;77.83
77587;BME280;66744;49.716;17.158;2023-12-29T13:20:47;98964.56;;;8.01;77.89
77587;BME280;66744;49.716;17.158;2023-12-29T13:23:49;98960.72;;;7.98;78.16
77587;BME280;66744;49.716;17.158;2023-12-29T13:26:52;98959.59;;;7.96;78.57
77587;BME280;66744;49.716;17.158;2023-12-29T13:29:56;98956.47;;;7.94;77.75
77587;BME280;66744;49.716;17.158;2023-12-29T13:33:09;98948.00;;;7.88;78.22
77587;BME280;66744;49.716;17.158;2023-12-29T13:39:30;98961.25;;;7.90;77.71
77587;BME280;66744;49.716;17.158;2023-12-29T13:42:41;98959.00;;;7.84;77.79
77587;BME280;66744;49.716;17.158;2023-12-29T13:45:49;98957.09;;;7.81;77.65
77587;BME280;66744;49.716;17.158;2023-12-29T13:48:51;98964.16;;;7.79;77.97
77587;BME280;66744;49.716;17.158;2023-12-29T13:51:54;98966.13;;;7.78;77.99
77587;BME280;66744;49.716;17.158;2023-12-29T13:54:57;98965.00;;;7.76;77.91
77587;BME280;66744;49.716;17.158;2023-12-29T13:57:59;98959.59;;;7.72;77.98
77587;BME280;66744;49.716;17.158;2023-12-29T14:01:06;98958.13;;;7.68;78.34
77587;BME280;66744;49.716;17.158;2023-12-29T14:04:11;98967.09;;;7.68;77.94
77587;BME280;66744;49.716;17.158;2023-12-29T14:07:13;98966.28;;;7.71;78.35
77587;BME280;66744;49.716;17.158;2023-12-29T14:10:17;98969.78;;;7.72;78.49
77587;BME280;66744;49.716;17.158;2023-12-29T14:13:20;98972.19;;;7.66;78.64
77587;BME280;66744;49.716;17.158;2023-12-29T14:16:25;98956.56;;;7.67;78.42
77587;BME280;66744;49.716;17.158;2023-12-29T14:19:34;98960.50;;;7.66;78.80
77587;BME280;66744;49.716;17.158;2023-12-29T14:22:35;98971.03;;;7.67;78.46
77587;BME280;66744;49.716;17.158;2023-12-29T14:25:37;98963.25;;;7.66;78.88
77587;BME280;66744;49.716;17.158;2023-12-29T14:28:38;98965.97;;;7.66;78.08
77587;BME280;66744;49.716;17.158;2023-12-29T14:31:42;98964.44;;;7.65;78.58
77587;BME280;66744;49.716;17.158;2023-12-29T14:34:48;98968.81;;;7.59;78.91
77587;BME280;66744;49.716;17.158;2023-12-29T14:37:55;98971.25;;;7.53;78.35
77587;BME280;66744;49.716;17.158;2023-12-29T14:41:01;98974.09;;;7.46;78.72
77587;BME280;66744;49.716;17.158;2023-12-29T14:44:04;98980.03;;;7.41;78.86
77587;BME280;66744;49.716;17.158;2023-12-29T14:47:08;98981.66;;;7.39;78.50
77587;BME280;66744;49.716;17.158;2023-12-29T14:50:11;98977.47;;;7.31;78.76
77587;BME280;66744;49.716;17.158;2023-12-29T14:53:13;98970.09;;;7.27;78.83
77587;BME280;66744;49.716;17.158;2023-12-29T14:56:16;98983.06;;;7.23;78.76
77587;BME280;66744;49.716;17.158;2023-12-29T14:59:18;98977.25;;;7.21;78.41
77587;BME280;66744;49.716;17.158;2023-12-29T15:02:20;98979.63;;;7.16;78.15
77587;BME280;66744;49.716;17.158;2023-12-29T15:05:24;98987.97;;;7.09;78.70
77587;BME280;66744;49.716;17.158;2023-12-29T15:08:25;98984.16;;;7.03;79.25
77587;BME280;66744;49.716;17.158;2023-12-29T15:11:32;98984.19;;;6.99;78.46
77587;BME280;66744;49.716;17.158;2023-12-29T15:14:34;98992.06;;;6.94;77.83
77587;BME280;66744;49.716;17.158;2023-12-29T15:17:39;98983.63;;;6.85;78.19
77587;BME280;66744;49.716;17.158;2023-12-29T15:20:41;98981.38;;;6.76;79.22
77587;BME280;66744;49.716;17.158;2023-12-29T15:23:43;98980.97;;;6.78;78.41
77587;BME280;66744;49.716;17.158;2023-12-29T15:26:47;98975.88;;;6.80;78.67
77587;BME280;66744;49.716;17.158;2023-12-29T15:29:50;98963.00;;;6.80;79.21
77587;BME280;66744;49.716;17.158;2023-12-29T15:32:54;98979.00;;;6.78;79.66
77587;BME280;66744;49.716;17.158;2023-12-29T15:35:56;98978.69;;;6.72;79.02
77587;BME280;66744;49.716;17.158;2023-12-29T15:39:00;98982.25;;;6.69;79.51
77587;BME280;66744;49.716;17.158;2023-12-29T15:42:04;98979.16;;;6.67;79.13
77587;BME280;66744;49.716;17.158;2023-12-29T15:45:10;98985.44;;;6.64;78.35
77587;BME280;66744;49.716;17.158;2023-12-29T15:48:12;98976.13;;;6.62;78.59
77587;BME280;66744;49.716;17.158;2023-12-29T15:51:14;98973.78;;;6.60;79.60
77587;BME280;66744;49.716;17.158;2023-12-29T15:54:20;98984.66;;;6.64;77.97
77587;BME280;66744;49.716;17.158;2023-12-29T15:57:23;98978.47;;;6.60;78.99
77587;BME280;66744;49.716;17.158;2023-12-29T16:00:31;98978.16;;;6.54;79.01
77587;BME280;66744;49.716;17.158;2023-12-29T16:03:40;98968.06;;;6.51;78.98
77587;BME280;66744;49.716;17.158;2023-12-29T16:06:43;98972.38;;;6.49;80.11
77587;BME280;66744;49.716;17.158;2023-12-29T16:09:47;98969.69;;;6.45;79.91
77587;BME280;66744;49.716;17.158;2023-12-29T16:12:48;98968.16;;;6.44;79.49
77587;BME280;66744;49.716;17.158;2023-12-29T16:15:58;98962.78;;;6.37;80.33
77587;BME280;66744;49.716;17.158;2023-12-29T16:19:04;98974.81;;;6.40;78.79
77587;BME280;66744;49.716;17.158;2023-12-29T16:22:08;98965.47;;;6.41;80.17
77587;BME280;66744;49.716;17.158;2023-12-29T16:25:09;98964.66;;;6.44;79.40
77587;BME280;66744;49.716;17.158;2023-12-29T16:28:10;98961.84;;;6.47;80.43